Time;durP1;ratioP1;P1;durP2;ratioP2;P2;SDS_P1;SDS_P2;PMS_P1;PMS_P2;Temp;Humidity;BMP_temperature;BMP_pressure;BME280_temperature;BME280_humidity;BME280_pressure;Samples;Min_cycle;Max_cycle;Signal;HPM_P1;HPM_P2
2024/01/14 00:01:56;;;;;;;9.70;6.88;;;-2.90;99.90;;;;;;5050004;28;20207;-75
2024/01/14 00:04:23;;;;;;;8.38;4.72;;;-2.70;99.90;;;;;;5046021;28;20616;-75
2024/01/14 00:06:50;;;;;;;8.75;7.10;;;-2.70;99.90;;;;;;5049135;28;20204;-74
2024/01/14 00:09:17;;;;;;;8.75;7.85;;;-2.70;99.90;;;;;;5050254;28;20203;-75
2024/01/14 00:11:44;;;;;;;29.98;10.00;;;-2.60;99.90;;;;;;5045773;28;20210;-75
2024/01/14 00:14:11;;;;;;;18.65;8.63;;;-2.70;99.90;;;;;;5045582;28;20227;-75
2024/01/14 00:16:38;;;;;;;27.30;9.98;;;-2.80;99.90;;;;;;5044036;28;20239;-75
2024/01/14 00:19:06;;;;;;;25.23;10.90;;;-2.80;99.90;;;;;;5046160;27;20208;-75
2024/01/14 00:21:33;;;;;;;23.48;7.35;;;-2.70;99.90;;;;;;5065901;27;20670;-75
2024/01/14 00:24:00;;;;;;;11.70;7.90;;;-2.60;99.90;;;;;;5056818;28;20211;-75
2024/01/14 00:26:28;;;;;;;19.58;9.32;;;-2.60;99.90;;;;;;5069431;27;20222;-75
2024/01/14 00:28:57;;;;;;;20.98;8.40;;;-2.60;99.90;;;;;;5056489;27;20200;-75
2024/01/14 00:31:24;;;;;;;16.88;8.13;;;-2.50;99.90;;;;;;5071060;27;20203;-75
2024/01/14 00:33:51;;;;;;;19.25;7.93;;;-2.50;99.90;;;;;;5049801;28;20231;-75
2024/01/14 00:36:19;;;;;;;17.08;7.93;;;-2.60;99.90;;;;;;5068231;27;20216;-75
2024/01/14 00:38:46;;;;;;;17.70;8.70;;;-2.70;99.90;;;;;;5071376;27;20728;-75
2024/01/14 00:41:13;;;;;;;16.00;6.43;;;-2.70;99.90;;;;;;5053471;27;20203;-74
2024/01/14 00:43:40;;;;;;;11.20;6.28;;;-2.90;99.90;;;;;;5054938;28;20202;-74
2024/01/14 00:46:07;;;;;;;25.75;7.78;;;-2.90;99.90;;;;;;5055460;27;20193;-74
2024/01/14 00:48:34;;;;;;;16.35;8.70;;;-2.90;99.90;;;;;;5062488;27;20211;-75
2024/01/14 00:51:01;;;;;;;11.30;9.07;;;-2.90;99.90;;;;;;5056971;27;20546;-74
2024/01/14 00:53:29;;;;;;;11.65;7.45;;;-2.90;99.90;;;;;;5056806;28;20204;-74
2024/01/14 00:55:56;;;;;;;12.55;8.68;;;-2.70;99.90;;;;;;5054208;28;20228;-75
2024/01/14 00:58:22;;;;;;;11.32;6.28;;;-2.60;99.90;;;;;;5069144;27;20204;-74
2024/01/14 01:00:49;;;;;;;14.48;6.38;;;-2.70;99.90;;;;;;5055156;28;20292;-74
2024/01/14 01:03:16;;;;;;;11.27;7.47;;;-2.70;99.90;;;;;;5050971;28;20658;-74
2024/01/14 01:05:43;;;;;;;22.77;6.93;;;-2.80;99.90;;;;;;5052986;28;20204;-74
2024/01/14 01:08:09;;;;;;;13.00;6.63;;;-2.90;99.90;;;;;;5052344;28;20287;-74
2024/01/14 01:10:37;;;;;;;10.80;5.90;;;-3.00;99.90;;;;;;5053392;28;20208;-74
2024/01/14 01:13:04;;;;;;;14.95;9.23;;;-2.90;99.90;;;;;;5045023;28;20204;-75
2024/01/14 01:15:31;;;;;;;13.18;8.27;;;-2.80;99.90;;;;;;5040340;28;20217;-75
2024/01/14 01:17:58;;;;;;;26.33;7.35;;;-2.90;99.90;;;;;;5041880;28;20201;-74
2024/01/14 01:20:25;;;;;;;6.38;5.78;;;-2.90;99.90;;;;;;5040131;28;20203;-74
2024/01/14 01:22:52;;;;;;;17.42;10.57;;;-3.00;99.90;;;;;;5035839;28;20217;-74
2024/01/14 01:25:18;;;;;;;20.35;9.57;;;-3.00;99.90;;;;;;5039386;28;20200;-74
2024/01/14 01:27:46;;;;;;;17.55;6.95;;;-2.90;99.90;;;;;;5035757;28;20558;-74
2024/01/14 01:30:14;;;;;;;6.82;6.20;;;-2.90;99.90;;;;;;5039462;28;20238;-74
2024/01/14 01:32:41;;;;;;;30.90;9.07;;;-2.90;99.90;;;;;;5037192;28;20205;-75
2024/01/14 01:35:08;;;;;;;16.30;8.40;;;-2.90;99.90;;;;;;5041641;28;20237;-75
2024/01/14 01:37:35;;;;;;;15.95;8.23;;;-2.90;99.90;;;;;;5041124;28;20232;-74
2024/01/14 01:40:03;;;;;;;16.85;8.10;;;-2.80;99.90;;;;;;5039945;28;20574;-74
2024/01/14 01:42:30;;;;;;;9.95;7.15;;;-2.90;99.90;;;;;;5040791;28;20443;-74
2024/01/14 01:44:58;;;;;;;9.68;5.80;;;-2.90;99.90;;;;;;5037828;28;20197;-75
2024/01/14 01:47:25;;;;;;;15.23;8.75;;;-2.70;99.90;;;;;;5048078;28;20215;-75
2024/01/14 01:49:52;;;;;;;13.13;8.48;;;-2.70;99.90;;;;;;5052677;27;20561;-75
2024/01/14 01:52:19;;;;;;;14.70;8.40;;;-2.70;99.90;;;;;;5043857;28;20208;-75
2024/01/14 01:54:49;;;;;;;22.38;7.93;;;-2.70;99.90;;;;;;5042869;28;20566;-75
2024/01/14 01:57:17;;;;;;;15.38;6.60;;;-2.70;99.90;;;;;;5040152;28;20289;-75
2024/01/14 01:59:46;;;;;;;19.20;6.90;;;-2.60;99.90;;;;;;5041514;28;20196;-75
2024/01/14 02:02:15;;;;;;;11.00;8.52;;;-2.60;99.90;;;;;;5036544;28;20197;-75
2024/01/14 02:04:42;;;;;;;18.35;8.43;;;-2.60;99.90;;;;;;5040485;28;20749;-75
2024/01/14 02:07:09;;;;;;;23.08;10.15;;;-2.70;99.90;;;;;;5043936;28;20585;-75
2024/01/14 02:09:38;;;;;;;12.18;6.80;;;-2.70;99.90;;;;;;5048564;28;20286;-75
2024/01/14 02:12:05;;;;;;;12.00;7.72;;;-2.50;99.90;;;;;;5075733;27;20269;-75
2024/01/14 02:14:32;;;;;;;29.45;9.35;;;-2.50;99.90;;;;;;5081740;27;20582;-75
2024/01/14 02:17:00;;;;;;;14.20;7.20;;;-2.60;99.90;;;;;;5054245;27;20449;-75
2024/01/14 02:19:28;;;;;;;15.90;7.80;;;-2.70;99.90;;;;;;5068993;27;20666;-75
2024/01/14 02:22:01;;;;;;;8.95;6.40;;;-2.60;99.90;;;;;;5064405;27;20564;-75
2024/01/14 02:24:32;;;;;;;12.73;7.57;;;-2.60;99.90;;;;;;5062768;27;20665;-75
2024/01/14 02:27:01;;;;;;;15.65;6.00;;;-2.70;99.90;;;;;;5074777;27;20199;-75
2024/01/14 02:29:29;;;;;;;18.58;7.72;;;-2.70;99.90;;;;;;5057190;28;20215;-75
2024/01/14 02:31:57;;;;;;;16.48;8.75;;;-2.60;99.90;;;;;;5058313;28;20204;-75
2024/01/14 02:34:26;;;;;;;18.33;8.93;;;-2.50;99.90;;;;;;5070729;27;20264;-75
2024/01/14 02:36:54;;;;;;;12.93;9.23;;;-2.50;99.90;;;;;;5053201;28;20239;-75
2024/01/14 02:39:21;;;;;;;11.68;9.23;;;-2.50;99.90;;;;;;5040384;28;20929;-76
2024/01/14 02:41:50;;;;;;;20.58;7.47;;;-2.60;99.90;;;;;;5047239;28;20205;-75
2024/01/14 02:44:16;;;;;;;23.40;6.15;;;-2.70;99.90;;;;;;5053677;28;20209;-75
2024/01/14 02:46:43;;;;;;;14.70;7.63;;;-2.60;99.90;;;;;;5049755;28;20202;-76
2024/01/14 02:49:11;;;;;;;6.97;6.28;;;-2.70;99.90;;;;;;5039559;28;20303;-75
2024/01/14 02:51:38;;;;;;;19.42;8.77;;;-2.80;99.90;;;;;;5052905;28;20197;-76
2024/01/14 02:54:05;;;;;;;15.57;9.23;;;-2.70;99.90;;;;;;5059271;28;20203;-75
2024/01/14 02:56:32;;;;;;;30.98;8.25;;;-2.70;99.90;;;;;;5042732;27;20304;-75
2024/01/14 02:59:02;;;;;;;15.80;7.85;;;-2.70;99.90;;;;;;5061402;28;20208;-76
2024/01/14 03:01:30;;;;;;;15.10;9.98;;;-2.60;99.90;;;;;;5049411;28;20566;-75
2024/01/14 03:03:58;;;;;;;13.38;11.15;;;-2.70;99.90;;;;;;5056249;28;20200;-75
2024/01/14 03:06:26;;;;;;;21.10;12.70;;;-2.60;99.90;;;;;;5047974;28;20228;-76
2024/01/14 03:08:54;;;;;;;8.90;5.32;;;-2.60;99.90;;;;;;5048811;28;20315;-76
2024/01/14 03:11:22;;;;;;;7.78;6.90;;;-2.60;99.90;;;;;;5051271;28;20544;-75
2024/01/14 03:13:50;;;;;;;12.63;7.80;;;-2.80;99.90;;;;;;5049856;28;20205;-75
2024/01/14 03:16:19;;;;;;;17.35;8.13;;;-2.70;99.90;;;;;;5047724;28;20254;-75
2024/01/14 03:18:47;;;;;;;22.30;12.05;;;-2.70;99.90;;;;;;5053110;28;20199;-76
2024/01/14 03:21:18;;;;;;;23.48;6.72;;;-2.70;99.90;;;;;;5049978;27;20346;-76
2024/01/14 03:23:46;;;;;;;18.67;8.35;;;-2.70;99.90;;;;;;5053296;27;20324;-76
2024/01/14 03:26:14;;;;;;;15.85;5.93;;;-2.60;99.90;;;;;;5037406;28;20201;-76
2024/01/14 03:28:41;;;;;;;7.22;4.15;;;-2.60;99.90;;;;;;5043756;28;20406;-76
2024/01/14 03:31:15;;;;;;;12.25;7.78;;;-2.60;99.90;;;;;;5044135;28;20208;-76
2024/01/14 03:33:44;;;;;;;17.70;9.13;;;-2.50;99.90;;;;;;5040218;28;20208;-75
2024/01/14 03:36:14;;;;;;;11.38;7.82;;;-2.50;99.90;;;;;;5043130;28;20216;-76
2024/01/14 03:38:41;;;;;;;11.10;7.43;;;-2.50;99.90;;;;;;5036112;28;20208;-76
2024/01/14 03:41:08;;;;;;;11.68;6.78;;;-2.70;99.90;;;;;;5043134;27;20239;-75
2024/01/14 03:43:37;;;;;;;13.85;9.13;;;-2.70;99.90;;;;;;5047123;28;20207;-75
2024/01/14 03:46:05;;;;;;;13.25;8.45;;;-2.90;99.90;;;;;;5058863;28;20195;-75
2024/01/14 03:48:32;;;;;;;25.73;7.97;;;-3.00;99.90;;;;;;5051009;28;20634;-75
2024/01/14 03:51:01;;;;;;;12.05;7.10;;;-3.20;99.90;;;;;;5058022;28;20207;-76
2024/01/14 03:53:28;;;;;;;15.65;7.90;;;-3.20;99.90;;;;;;5054865;27;20673;-75
2024/01/14 03:55:55;;;;;;;16.70;8.13;;;-3.30;99.90;;;;;;5087349;27;20571;-75
2024/01/14 03:58:21;;;;;;;13.50;8.32;;;-3.10;99.90;;;;;;5075360;27;20283;-75
2024/01/14 04:00:48;;;;;;;11.25;6.97;;;-3.10;99.90;;;;;;5087983;27;20677;-75
2024/01/14 04:03:15;;;;;;;15.15;8.25;;;-3.30;99.90;;;;;;5081953;27;20208;-75
2024/01/14 04:05:42;;;;;;;10.73;9.00;;;-3.20;99.90;;;;;;5084718;27;20272;-75
2024/01/14 04:08:10;;;;;;;10.30;6.20;;;-3.20;99.90;;;;;;5085565;27;20213;-75
2024/01/14 04:10:37;;;;;;;16.83;6.63;;;-3.10;99.90;;;;;;5063961;28;20188;-75
2024/01/14 04:13:04;;;;;;;27.50;8.05;;;-3.20;99.90;;;;;;5062905;28;20203;-75
2024/01/14 04:15:30;;;;;;;13.55;7.82;;;-3.20;99.90;;;;;;5054823;28;20229;-75
2024/01/14 04:17:57;;;;;;;9.52;7.60;;;-3.30;99.90;;;;;;5051687;28;20211;-75
2024/01/14 04:20:24;;;;;;;11.60;6.53;;;-3.20;99.90;;;;;;5051772;28;20201;-75
2024/01/14 04:22:51;;;;;;;9.75;5.47;;;-3.10;99.90;;;;;;5046832;28;20629;-75
2024/01/14 04:25:19;;;;;;;7.65;6.18;;;-3.20;99.90;;;;;;5058174;28;20287;-75
2024/01/14 04:27:46;;;;;;;10.32;7.15;;;-3.20;99.90;;;;;;5049660;28;20201;-76
2024/01/14 04:30:13;;;;;;;8.57;5.65;;;-3.30;99.90;;;;;;5046518;28;20294;-75
2024/01/14 04:32:40;;;;;;;5.72;4.18;;;-3.40;99.90;;;;;;5049782;28;20276;-75
2024/01/14 04:35:07;;;;;;;15.13;6.70;;;-3.40;99.90;;;;;;5041132;28;20231;-75
2024/01/14 04:37:34;;;;;;;7.38;6.75;;;-3.40;99.90;;;;;;5032259;28;20575;-75
2024/01/14 04:40:01;;;;;;;6.75;5.30;;;-3.30;99.90;;;;;;5042116;28;20205;-76
2024/01/14 04:42:29;;;;;;;20.20;6.10;;;-3.20;99.90;;;;;;5041209;28;20228;-75
2024/01/14 04:44:56;;;;;;;17.40;5.30;;;-3.10;99.90;;;;;;5052770;28;20561;-75
2024/01/14 04:47:23;;;;;;;11.20;8.27;;;-3.10;99.90;;;;;;5047351;28;20339;-75
2024/01/14 04:49:49;;;;;;;9.65;5.20;;;-3.10;99.90;;;;;;5045985;27;20205;-75
2024/01/14 04:52:16;;;;;;;11.82;8.48;;;-3.10;99.90;;;;;;5046834;28;20215;-75
2024/01/14 04:54:43;;;;;;;6.82;5.68;;;-3.00;99.90;;;;;;5035444;28;20572;-75
2024/01/14 04:57:10;;;;;;;10.65;8.43;;;-2.90;99.90;;;;;;5044875;28;20263;-75
2024/01/14 04:59:38;;;;;;;23.02;8.38;;;-2.90;99.90;;;;;;5039684;28;20192;-75
2024/01/14 05:02:05;;;;;;;11.00;7.05;;;-2.90;99.90;;;;;;5051027;28;20204;-76
2024/01/14 05:04:31;;;;;;;12.98;7.65;;;-2.90;99.90;;;;;;5065437;27;20210;-75
2024/01/14 05:06:59;;;;;;;9.07;7.32;;;-2.90;99.90;;;;;;5052447;28;20287;-75
2024/01/14 05:09:26;;;;;;;10.93;7.60;;;-2.90;99.90;;;;;;5061064;27;20638;-75
2024/01/14 05:11:52;;;;;;;14.90;8.80;;;-3.00;99.90;;;;;;5055571;28;20287;-75
2024/01/14 05:14:20;;;;;;;15.05;8.68;;;-3.30;99.90;;;;;;5058913;28;20218;-76
2024/01/14 05:16:48;;;;;;;18.42;9.35;;;-3.20;99.90;;;;;;5041841;28;20238;-75
2024/01/14 05:19:15;;;;;;;8.98;6.38;;;-3.20;99.90;;;;;;5056177;28;20271;-75
2024/01/14 05:21:42;;;;;;;11.18;6.20;;;-3.20;99.90;;;;;;5048882;27;20662;-76
2024/01/14 05:24:09;;;;;;;10.27;7.22;;;-3.30;99.90;;;;;;5058878;27;20223;-75
2024/01/14 05:26:40;;;;;;;12.90;5.88;;;-3.50;99.90;;;;;;5051371;28;20208;-76
2024/01/14 05:29:07;;;;;;;13.63;7.90;;;-3.40;99.90;;;;;;5052781;27;20311;-75
2024/01/14 05:31:33;;;;;;;14.48;7.88;;;-3.50;99.90;;;;;;5048548;28;20208;-75
2024/01/14 05:34:01;;;;;;;20.30;5.40;;;-3.60;99.90;;;;;;5056955;28;20203;-75
2024/01/14 05:36:28;;;;;;;14.23;6.82;;;-3.60;99.90;;;;;;5051347;28;20216;-75
2024/01/14 05:38:55;;;;;;;13.00;7.57;;;-3.70;99.90;;;;;;5048803;28;20287;-75
2024/01/14 05:41:22;;;;;;;8.60;6.60;;;-3.80;99.90;;;;;;5051253;28;20207;-75
2024/01/14 05:43:49;;;;;;;16.10;7.25;;;-3.80;99.90;;;;;;5044149;28;20205;-75
2024/01/14 05:46:15;;;;;;;14.00;6.00;;;-3.80;99.90;;;;;;5043190;28;20199;-75
2024/01/14 05:48:43;;;;;;;8.55;5.05;;;-3.70;99.90;;;;;;5034807;28;20256;-75
2024/01/14 05:51:11;;;;;;;9.75;6.90;;;-3.60;99.90;;;;;;5040662;27;20507;-76
2024/01/14 05:53:38;;;;;;;10.20;8.05;;;-3.70;99.90;;;;;;5041127;28;20207;-75
2024/01/14 05:56:05;;;;;;;8.68;6.72;;;-3.70;99.90;;;;;;5041905;28;20224;-76
2024/01/14 05:58:32;;;;;;;13.13;5.90;;;-3.80;99.90;;;;;;5038635;28;20215;-75
2024/01/14 06:01:00;;;;;;;7.93;6.78;;;-3.80;99.90;;;;;;5048688;28;20581;-75
2024/01/14 06:03:27;;;;;;;5.93;5.35;;;-3.90;99.90;;;;;;5067971;28;20220;-76
2024/01/14 06:05:54;;;;;;;11.80;5.57;;;-4.00;99.90;;;;;;5067299;28;20208;-75
2024/01/14 06:08:22;;;;;;;6.30;5.80;;;-4.00;99.90;;;;;;5065194;28;20214;-75
2024/01/14 06:10:49;;;;;;;7.28;5.43;;;-3.90;99.90;;;;;;5065626;28;20200;-76
2024/01/14 06:13:16;;;;;;;10.93;6.63;;;-3.80;99.90;;;;;;5053458;28;20196;-75
2024/01/14 06:15:42;;;;;;;20.60;8.68;;;-3.90;99.90;;;;;;5040794;28;20344;-75
2024/01/14 06:18:09;;;;;;;9.50;6.00;;;-4.00;99.90;;;;;;5055015;27;20217;-75
2024/01/14 06:20:36;;;;;;;18.80;6.53;;;-4.00;99.90;;;;;;5062756;28;20575;-75
2024/01/14 06:23:03;;;;;;;11.02;8.10;;;-4.10;99.90;;;;;;5062282;28;20677;-75
2024/01/14 06:25:31;;;;;;;7.95;7.10;;;-4.20;99.90;;;;;;5040226;28;20300;-75
2024/01/14 06:27:58;;;;;;;12.88;7.70;;;-4.10;99.90;;;;;;5062254;28;20569;-75
2024/01/14 06:30:25;;;;;;;11.98;7.35;;;-3.90;99.90;;;;;;5049546;28;20217;-76
2024/01/14 06:32:55;;;;;;;23.45;9.15;;;-3.80;99.90;;;;;;5057969;28;20211;-75
2024/01/14 06:35:22;;;;;;;8.48;7.10;;;-3.80;99.90;;;;;;5046788;27;20292;-75
2024/01/14 06:37:49;;;;;;;14.27;7.70;;;-3.90;99.90;;;;;;5046314;28;20216;-75
2024/01/14 06:40:16;;;;;;;14.63;6.57;;;-3.80;99.90;;;;;;5051466;28;20207;-75
2024/01/14 06:42:44;;;;;;;10.13;6.30;;;-3.90;99.90;;;;;;5050379;28;20212;-75
2024/01/14 06:45:13;;;;;;;8.88;5.60;;;-3.70;99.90;;;;;;5053280;28;20201;-75
2024/01/14 06:47:40;;;;;;;15.95;8.05;;;-3.80;99.90;;;;;;5051718;28;20208;-75
2024/01/14 06:50:08;;;;;;;6.15;5.30;;;-3.90;99.90;;;;;;5051380;27;20216;-75
2024/01/14 06:52:35;;;;;;;31.83;7.20;;;-3.80;99.90;;;;;;5040316;28;20564;-75
2024/01/14 06:55:04;;;;;;;11.02;6.63;;;-3.60;99.90;;;;;;5043136;28;20618;-75
2024/01/14 06:57:31;;;;;;;8.85;6.15;;;-3.60;99.90;;;;;;5036535;28;20213;-75
2024/01/14 06:59:59;;;;;;;12.30;7.28;;;-3.60;99.90;;;;;;5041863;28;20226;-75
2024/01/14 07:02:26;;;;;;;27.52;8.68;;;-3.50;99.90;;;;;;5043390;28;20212;-76
2024/01/14 07:04:53;;;;;;;10.82;6.55;;;-3.60;99.90;;;;;;5036980;28;20224;-76
2024/01/14 07:07:20;;;;;;;5.68;5.20;;;-3.50;99.90;;;;;;5042556;28;20203;-75
2024/01/14 07:09:47;;;;;;;11.88;6.95;;;-3.40;99.90;;;;;;5049949;27;20196;-76
2024/01/14 07:12:14;;;;;;;13.85;7.50;;;-3.30;99.90;;;;;;5041222;28;20196;-75
2024/01/14 07:14:41;;;;;;;11.18;7.50;;;-3.30;99.90;;;;;;5038691;28;20289;-76
2024/01/14 07:17:09;;;;;;;19.85;5.40;;;-3.20;99.90;;;;;;5043883;28;20232;-76
2024/01/14 07:19:36;;;;;;;8.57;4.28;;;-3.20;99.90;;;;;;5042893;28;20215;-75
2024/01/14 07:22:04;;;;;;;11.05;6.43;;;-3.30;99.90;;;;;;5038433;28;20217;-75
2024/01/14 07:24:31;;;;;;;15.95;9.95;;;-3.20;99.90;;;;;;5040423;28;20208;-77
2024/01/14 07:26:58;;;;;;;10.13;7.20;;;-3.40;99.90;;;;;;5037872;28;20639;-76
2024/01/14 07:29:25;;;;;;;21.00;8.95;;;-3.30;99.90;;;;;;5056287;27;20618;-76
2024/01/14 07:31:52;;;;;;;20.17;8.90;;;-3.40;99.90;;;;;;5043866;28;20619;-76
2024/01/14 07:34:20;;;;;;;21.95;10.15;;;-3.30;99.90;;;;;;5046031;28;20275;-74
2024/01/14 07:36:47;;;;;;;18.27;6.57;;;-3.20;99.90;;;;;;5043803;28;20228;-75
2024/01/14 07:39:16;;;;;;;12.75;8.90;;;-3.10;99.90;;;;;;5043108;28;20638;-76
2024/01/14 07:41:42;;;;;;;18.48;7.53;;;-3.10;99.90;;;;;;5042074;28;20295;-75
2024/01/14 07:44:09;;;;;;;9.27;7.60;;;-3.20;99.90;;;;;;5043525;28;20208;-76
2024/01/14 07:46:36;;;;;;;10.07;6.90;;;-3.20;99.90;;;;;;5041688;28;20207;-76
2024/01/14 07:49:03;;;;;;;13.02;6.93;;;-3.00;99.90;;;;;;5038418;28;20205;-74
2024/01/14 07:51:31;;;;;;;9.10;6.15;;;-3.20;99.90;;;;;;5041515;28;20205;-77
2024/01/14 07:53:58;;;;;;;10.02;6.82;;;-3.10;99.90;;;;;;5041105;28;20277;-76
2024/01/14 07:56:25;;;;;;;14.48;7.57;;;-3.20;99.90;;;;;;5044232;28;20241;-76
2024/01/14 07:58:52;;;;;;;9.27;8.38;;;-3.10;99.90;;;;;;5041417;28;20202;-76
2024/01/14 08:01:18;;;;;;;8.35;7.35;;;-3.10;99.80;;;;;;5037807;27;20547;-76
2024/01/14 08:03:46;;;;;;;13.88;5.20;;;-3.10;99.70;;;;;;5037407;28;20220;-76
2024/01/14 08:06:13;;;;;;;13.57;6.43;;;-3.10;99.40;;;;;;5058728;28;20652;-74
2024/01/14 08:08:41;;;;;;;12.85;6.55;;;-3.10;99.50;;;;;;5066649;28;20200;-76
2024/01/14 08:11:08;;;;;;;12.13;6.07;;;-3.10;99.70;;;;;;5047104;28;20290;-76
2024/01/14 08:13:35;;;;;;;18.15;8.30;;;-3.20;99.80;;;;;;5063360;28;20197;-74
2024/01/14 08:16:01;;;;;;;6.40;5.78;;;-3.10;99.80;;;;;;5037585;28;20208;-72
2024/01/14 08:18:28;;;;;;;7.65;4.63;;;-3.00;99.70;;;;;;5059686;28;20207;-71
2024/01/14 08:20:55;;;;;;;11.43;6.90;;;-3.00;99.50;;;;;;5050928;27;20811;-70
2024/01/14 08:23:22;;;;;;;6.03;5.47;;;-3.00;99.80;;;;;;5050682;28;20562;-72
2024/01/14 08:25:50;;;;;;;18.02;7.38;;;-3.10;99.60;;;;;;5056308;28;20204;-72
2024/01/14 08:28:17;;;;;;;5.90;5.40;;;-3.00;99.90;;;;;;5050619;28;20204;-71
2024/01/14 08:30:44;;;;;;;14.30;7.93;;;-3.10;99.80;;;;;;5045951;28;20224;-71
2024/01/14 08:33:10;;;;;;;14.18;6.88;;;-3.20;99.90;;;;;;5046305;28;20558;-71
2024/01/14 08:35:37;;;;;;;15.98;7.93;;;-3.10;99.90;;;;;;5046278;28;20227;-71
2024/01/14 08:38:04;;;;;;;10.68;7.95;;;-2.90;99.90;;;;;;5053371;28;20239;-71
2024/01/14 08:40:31;;;;;;;14.43;10.40;;;-2.90;99.60;;;;;;5054070;28;20729;-71
2024/01/14 08:42:59;;;;;;;10.95;5.53;;;-2.80;99.50;;;;;;5048462;28;20625;-71
2024/01/14 08:45:26;;;;;;;5.65;5.05;;;-2.80;99.50;;;;;;5045414;27;20311;-71
2024/01/14 08:47:53;;;;;;;13.75;9.77;;;-2.90;99.30;;;;;;5051035;28;20212;-75
2024/01/14 08:50:20;;;;;;;15.80;9.93;;;-3.00;99.40;;;;;;5049883;27;20202;-73
2024/01/14 08:52:47;;;;;;;12.90;8.10;;;-2.90;99.50;;;;;;5044203;28;20204;-75
2024/01/14 08:55:14;;;;;;;17.45;8.48;;;-2.80;99.30;;;;;;5039840;28;20288;-73
2024/01/14 08:57:41;;;;;;;7.18;5.65;;;-2.80;99.20;;;;;;5049404;28;20293;-74
2024/01/14 09:00:10;;;;;;;19.70;9.00;;;-2.80;99.10;;;;;;5048445;28;20649;-74
2024/01/14 09:02:37;;;;;;;10.38;6.40;;;-3.00;99.10;;;;;;5041955;28;20609;-75
2024/01/14 09:05:05;;;;;;;10.52;5.72;;;-3.00;99.20;;;;;;5052628;28;20208;-73
2024/01/14 09:07:33;;;;;;;12.43;9.45;;;-2.80;99.40;;;;;;5066630;28;20218;-75
2024/01/14 09:10:00;;;;;;;17.25;6.75;;;-2.60;99.20;;;;;;5066116;27;20207;-74
2024/01/14 09:12:27;;;;;;;12.13;9.20;;;-2.50;99.00;;;;;;5060316;28;20226;-72
2024/01/14 09:14:53;;;;;;;16.30;8.00;;;-2.60;98.60;;;;;;5055296;28;20212;-72
2024/01/14 09:17:21;;;;;;;10.13;8.20;;;-2.80;98.30;;;;;;5057541;28;20234;-72
2024/01/14 09:19:48;;;;;;;20.23;9.27;;;-2.80;98.50;;;;;;5063309;28;20226;-72
2024/01/14 09:22:15;;;;;;;13.50;6.38;;;-2.80;98.50;;;;;;5060418;28;20231;-72
2024/01/14 09:24:45;;;;;;;13.57;9.68;;;-3.00;98.40;;;;;;5057971;28;20203;-72
2024/01/14 09:27:12;;;;;;;20.83;9.93;;;-3.00;98.80;;;;;;5059780;28;20212;-72
2024/01/14 09:29:39;;;;;;;24.98;10.65;;;-2.80;98.80;;;;;;5057766;28;20205;-72
2024/01/14 09:32:06;;;;;;;15.50;7.35;;;-2.70;98.50;;;;;;5059091;28;20223;-72
2024/01/14 09:34:35;;;;;;;13.50;8.68;;;-2.70;98.40;;;;;;5055558;28;20204;-72
2024/01/14 09:37:02;;;;;;;19.05;9.10;;;-2.70;98.30;;;;;;5049382;28;20272;-72
2024/01/14 09:39:28;;;;;;;16.33;8.90;;;-2.60;98.40;;;;;;5049582;28;20200;-73
2024/01/14 09:42:08;;;;;;;15.13;7.88;;;-2.50;98.20;;;;;;5055107;28;20658;-77
2024/01/14 09:44:35;;;;;;;20.20;7.15;;;-2.50;98.20;;;;;;5048630;28;20291;-72
2024/01/14 09:47:02;;;;;;;18.15;7.05;;;-2.50;98.20;;;;;;5053030;28;20573;-71
2024/01/14 09:49:29;;;;;;;19.05;9.57;;;-2.40;98.10;;;;;;5039545;28;20229;-71
2024/01/14 09:51:58;;;;;;;14.30;10.75;;;-2.30;97.60;;;;;;5047561;28;20196;-71
2024/01/14 09:54:25;;;;;;;10.18;8.48;;;-2.40;97.60;;;;;;5049971;27;20608;-71
2024/01/14 09:56:53;;;;;;;14.85;9.77;;;-2.50;97.70;;;;;;5044073;28;20306;-71
2024/01/14 09:59:21;;;;;;;15.85;10.40;;;-2.80;97.60;;;;;;5040474;28;20211;-71
2024/01/14 10:01:51;;;;;;;17.88;7.47;;;-2.80;98.50;;;;;;5041746;28;20283;-71
2024/01/14 10:04:20;;;;;;;9.65;5.70;;;-2.60;98.60;;;;;;5042633;28;20241;-71
2024/01/14 10:06:47;;;;;;;14.57;9.48;;;-2.40;98.50;;;;;;5045308;28;20794;-72
2024/01/14 10:09:16;;;;;;;8.68;6.40;;;-2.30;98.20;;;;;;5049554;27;20610;-73
2024/01/14 10:11:43;;;;;;;34.20;10.40;;;-2.30;98.00;;;;;;5042959;27;20315;-75
2024/01/14 10:14:11;;;;;;;14.68;9.10;;;-2.50;97.80;;;;;;5039804;28;20209;-73
2024/01/14 10:16:39;;;;;;;15.27;7.90;;;-2.30;98.20;;;;;;5039058;27;20762;-74
2024/01/14 10:19:06;;;;;;;18.73;9.60;;;-2.30;98.20;;;;;;5036861;28;20389;-75
2024/01/14 10:21:33;;;;;;;14.93;8.00;;;-2.30;98.00;;;;;;5045637;28;20197;-75
2024/01/14 10:24:01;;;;;;;18.80;8.95;;;-2.10;97.90;;;;;;5045859;28;20209;-75
2024/01/14 10:26:32;;;;;;;10.98;7.60;;;-2.00;97.70;;;;;;5037149;28;20594;-74
2024/01/14 10:29:03;;;;;;;10.50;7.93;;;-2.00;97.40;;;;;;5044046;28;20295;-75
2024/01/14 10:31:31;;;;;;;13.90;10.80;;;-1.90;97.30;;;;;;5039552;28;20209;-76
2024/01/14 10:34:00;;;;;;;17.15;10.50;;;-1.70;97.40;;;;;;5048797;28;20310;-74
2024/01/14 10:36:28;;;;;;;8.95;6.65;;;-1.70;96.90;;;;;;5053813;27;20214;-75
2024/01/14 10:38:57;;;;;;;14.02;11.40;;;-1.90;96.70;;;;;;5051881;28;20231;-73
2024/01/14 10:41:25;;;;;;;16.98;8.65;;;-2.00;96.90;;;;;;5056850;28;20591;-73
2024/01/14 10:43:56;;;;;;;10.20;7.97;;;-1.90;97.30;;;;;;5056736;28;20200;-74
2024/01/14 10:46:24;;;;;;;16.48;7.72;;;-2.10;96.90;;;;;;5055397;27;20641;-72
2024/01/14 10:48:59;;;;;;;9.38;6.80;;;-2.30;96.90;;;;;;5045864;27;20209;-73
2024/01/14 10:51:31;;;;;;;14.10;7.43;;;-2.20;97.70;;;;;;5052978;27;20223;-72
2024/01/14 10:54:09;;;;;;;17.17;9.10;;;-2.00;97.50;;;;;;5073375;27;20287;-71
2024/01/14 10:56:40;;;;;;;8.45;7.57;;;-2.00;97.50;;;;;;5048000;28;20208;-72
2024/01/14 10:59:09;;;;;;;13.65;7.45;;;-1.90;97.20;;;;;;5043507;27;20482;-75
2024/01/14 11:01:43;;;;;;;14.93;7.35;;;-1.70;97.20;;;;;;5049309;28;20200;-74
2024/01/14 11:04:11;;;;;;;15.48;8.45;;;-1.60;96.90;;;;;;5042195;28;20250;-75
2024/01/14 11:06:38;;;;;;;16.52;7.47;;;-1.50;96.90;;;;;;5036339;28;20566;-75
2024/01/14 11:09:05;;;;;;;15.02;9.57;;;-1.30;96.70;;;;;;5046318;28;20202;-74
2024/01/14 11:11:38;;;;;;;13.07;9.95;;;-1.40;96.40;;;;;;5050847;28;20575;-74
2024/01/14 11:14:14;;;;;;;12.63;5.97;;;-1.30;96.50;;;;;;5067323;27;20205;-74
2024/01/14 11:16:47;;;;;;;16.98;6.72;;;-1.30;96.30;;;;;;5055139;28;20199;-74
2024/01/14 11:19:19;;;;;;;11.77;6.15;;;-1.50;95.90;;;;;;5064489;28;20287;-75
2024/01/14 11:21:54;;;;;;;14.02;8.00;;;-1.60;96.20;;;;;;5050310;27;20200;-74
2024/01/14 11:24:24;;;;;;;12.60;6.60;;;-1.70;96.20;;;;;;5061639;28;20217;-74
2024/01/14 11:26:51;;;;;;;13.48;7.32;;;-1.70;96.70;;;;;;5052031;28;20641;-74
2024/01/14 11:29:31;;;;;;;17.30;8.27;;;-1.30;96.80;;;;;;5061340;28;20207;-74
2024/01/14 11:32:09;;;;;;;17.80;9.20;;;-1.30;96.10;;;;;;5052011;28;20251;-74
2024/01/14 11:34:57;;;;;;;12.63;6.18;;;-1.20;96.10;;;;;;5051417;27;20204;-75
2024/01/14 11:37:37;;;;;;;15.30;8.30;;;-1.20;96.00;;;;;;5058344;27;20232;-74
2024/01/14 11:40:16;;;;;;;14.90;8.13;;;-1.10;96.10;;;;;;5051707;28;20210;-74
2024/01/14 11:42:49;;;;;;;13.55;6.70;;;-1.00;95.90;;;;;;5051795;28;20570;-74
2024/01/14 11:45:36;;;;;;;13.07;5.10;;;-0.80;95.70;;;;;;5056248;27;20211;-75
2024/01/14 11:48:04;;;;;;;12.02;7.53;;;-0.90;95.20;;;;;;5055542;28;20213;-74
2024/01/14 11:50:32;;;;;;;10.68;5.70;;;-1.00;94.90;;;;;;5044837;27;20620;-74
2024/01/14 11:53:00;;;;;;;5.30;4.78;;;-1.00;95.30;;;;;;5052906;28;20216;-74
2024/01/14 11:55:29;;;;;;;12.27;6.90;;;-1.00;95.30;;;;;;5041866;27;20206;-75
2024/01/14 11:57:56;;;;;;;8.55;7.30;;;-0.80;95.10;;;;;;5050779;27;20224;-74
2024/01/14 12:00:25;;;;;;;11.63;8.23;;;-0.80;94.90;;;;;;5035847;27;20554;-74
2024/01/14 12:03:08;;;;;;;12.25;8.48;;;-0.70;95.30;;;;;;5049375;27;20203;-75
2024/01/14 12:05:35;;;;;;;17.02;5.28;;;-0.70;95.50;;;;;;5033453;28;20287;-74
2024/01/14 12:08:03;;;;;;;10.70;6.55;;;-0.50;95.00;;;;;;5047558;28;20203;-75
2024/01/14 12:10:31;;;;;;;18.90;7.22;;;-0.50;94.60;;;;;;5056466;27;20631;-75
2024/01/14 12:12:59;;;;;;;11.48;7.10;;;-0.40;94.60;;;;;;5063377;27;20665;-75
2024/01/14 12:15:27;;;;;;;9.65;6.30;;;-0.40;94.60;;;;;;5050897;28;20211;-74
2024/01/14 12:17:55;;;;;;;9.15;7.18;;;-0.50;94.30;;;;;;5051457;28;20311;-74
2024/01/14 12:20:24;;;;;;;9.60;6.25;;;-0.50;94.40;;;;;;5051110;28;20243;-74
2024/01/14 12:22:56;;;;;;;12.95;7.10;;;-0.40;94.80;;;;;;5054000;27;20287;-74
2024/01/14 12:25:23;;;;;;;15.57;6.97;;;-0.40;95.10;;;;;;5060949;28;20199;-74
2024/01/14 12:27:50;;;;;;;14.85;8.02;;;-0.30;95.10;;;;;;5039085;28;20195;-74
2024/01/14 12:30:29;;;;;;;11.75;6.88;;;-0.30;94.90;;;;;;5056319;27;20243;-75
2024/01/14 12:32:57;;;;;;;17.17;9.93;;;-0.30;94.80;;;;;;5044598;28;20895;-75
2024/01/14 12:35:38;;;;;;;13.98;8.00;;;-0.30;94.60;;;;;;5044868;28;20742;-75
2024/01/14 12:38:08;;;;;;;12.88;9.93;;;-0.30;95.30;;;;;;5046700;28;20221;-74
2024/01/14 12:40:35;;;;;;;9.80;6.43;;;-0.30;95.10;;;;;;5043269;28;20287;-72
2024/01/14 12:43:02;;;;;;;13.35;7.75;;;-0.30;94.50;;;;;;5051437;28;20227;-73